»·PEaware :: N713BH KLAX-KSAN

N713BH :: KLAX-KSAN

FLIGHT INFORMATION

Flight Status: Arrived
Operator: Privately registered:
United States
More flights under this callsign
Pilot: Bryan H. (16252)
Aircraft: PIPER PA-28 CHEROKEE ARCHER
(PA28)
More flights by this aircraft type
Origin: KLAX Los Angeles Intl
United States
Destination: KSAN San Diego Intl-Lindbergh
United States
More flights between these airports :: More routes between these airports
Route: +
File this flight plan on PilotEdge
Remarks: CAT-11
Altitude:
(Current/Filed)
7,000ft
Speed:
(Current/Filed)
129kts
Departed: 29-Sep-17 03:53 PM
Arrived: 29-Sep-17 04:50 PM
Distance/Time
Traveled:
95nm/0:57
Distance/Time
To Go:
Arrived

Flight Plot

Page will automatically refresh every two minutes.


Map Options




Map Legend


Flown Route
Filed Route
Departure Airport
Arrival Airport
Navaid (VOR, NDB)
Fix

Horizontal Profiles

Position Reports

Time Latitude Longitude Heading Altitude Ground
Speed
29-Sep-17 15:25 33.942551 -118.381016 333 127ft 0kts
29-Sep-17 15:26 33.942551 -118.381016 333 127ft 0kts
29-Sep-17 15:27 33.942551 -118.381016 333 127ft 0kts
29-Sep-17 15:28 33.942551 -118.381016 333 127ft 0kts
29-Sep-17 15:29 33.942551 -118.381016 333 127ft 0kts
29-Sep-17 15:30 33.942551 -118.381016 333 127ft 0kts
29-Sep-17 15:31 33.942551 -118.381016 333 127ft 0kts
29-Sep-17 15:32 33.942551 -118.381016 333 127ft 0kts
29-Sep-17 15:33 33.942551 -118.381016 333 127ft 0kts
29-Sep-17 15:34 33.942551 -118.381016 332 127ft 0kts
29-Sep-17 15:35 33.942551 -118.381016 332 127ft 0kts
29-Sep-17 15:36 33.942551 -118.381016 333 127ft 0kts
29-Sep-17 15:37 33.942551 -118.381016 333 127ft 0kts
29-Sep-17 15:38 33.942551 -118.381016 333 127ft 0kts
29-Sep-17 15:39 33.942551 -118.381016 333 127ft 0kts
29-Sep-17 15:40 33.942551 -118.381016 333 127ft 0kts
29-Sep-17 15:41 33.942551 -118.381016 333 127ft 0kts
29-Sep-17 15:42 33.942551 -118.381016 333 127ft 0kts
29-Sep-17 15:43 33.942551 -118.381016 333 127ft 0kts
29-Sep-17 15:44 33.942551 -118.381016 333 127ft 0kts
29-Sep-17 15:45 33.942551 -118.381016 333 127ft 0kts
29-Sep-17 15:46 33.942551 -118.381016 333 127ft 0kts
29-Sep-17 15:47 33.942551 -118.381016 333 127ft 0kts
29-Sep-17 15:48 33.942551 -118.381016 333 127ft 0kts
29-Sep-17 15:49 33.942551 -118.381016 333 127ft 0kts
29-Sep-17 15:50 33.942551 -118.381016 333 127ft 0kts
29-Sep-17 15:51 33.942551 -118.381016 333 127ft 0kts
29-Sep-17 15:52 33.941308 -118.380438 183 127ft 11kts
29-Sep-17 15:53 33.940840 -118.380445 176 127ft 0kts
29-Sep-17 15:54 33.940840 -118.380445 176 127ft 0kts
29-Sep-17 15:55 33.940840 -118.380445 176 127ft 0kts
29-Sep-17 15:56 33.940840 -118.380445 176 127ft 0kts
29-Sep-17 15:57 33.939526 -118.383026 259 127ft 49kts
29-Sep-17 15:58 33.937042 -118.410254 262 775ft 94kts
29-Sep-17 15:59 33.934603 -118.440107 260 1666ft 95kts
29-Sep-17 16:00 33.924508 -118.465199 185 2370ft 110kts
29-Sep-17 16:01 33.908171 -118.435805 110 3062ft 120kts
29-Sep-17 16:02 33.895291 -118.402003 126 3821ft 115kts
29-Sep-17 16:03 33.876282 -118.374786 135 4577ft 110kts
29-Sep-17 16:04 33.855946 -118.350991 138 5332ft 107kts
29-Sep-17 16:05 33.835475 -118.328532 138 6093ft 103kts
29-Sep-17 16:06 33.815738 -118.307292 138 6823ft 97kts
29-Sep-17 16:07 33.796156 -118.286325 138 7412ft 101kts
29-Sep-17 16:08 33.772433 -118.260964 138 7541ft 138kts
29-Sep-17 16:09 33.745543 -118.232304 139 7522ft 137kts
29-Sep-17 16:10 33.718646 -118.203741 139 7515ft 135kts
29-Sep-17 16:11 33.691934 -118.175431 139 7507ft 135kts
29-Sep-17 16:12 33.665465 -118.147413 140 7500ft 134kts
29-Sep-17 16:13 33.639168 -118.119602 140 7493ft 133kts
29-Sep-17 16:14 33.613029 -118.091982 140 7512ft 131kts
29-Sep-17 16:15 33.586963 -118.064485 140 7508ft 131kts
29-Sep-17 16:16 33.561051 -118.037175 140 7508ft 130kts
29-Sep-17 16:17 33.535458 -118.010207 140 7509ft 131kts
29-Sep-17 16:18 33.509265 -117.982622 140 7510ft 134kts
29-Sep-17 16:19 33.482612 -117.954548 140 7509ft 136kts
29-Sep-17 16:20 33.455936 -117.926468 140 7509ft 136kts
29-Sep-17 16:21 33.428916 -117.898066 140 7509ft 135kts
29-Sep-17 16:22 33.402435 -117.870290 140 7511ft 133kts
29-Sep-17 16:23 33.376122 -117.842707 139 7510ft 133kts
29-Sep-17 16:24 33.349852 -117.815183 139 7509ft 133kts
29-Sep-17 16:25 33.323674 -117.787755 138 7509ft 132kts
29-Sep-17 16:26 33.297455 -117.760293 138 7509ft 132kts
29-Sep-17 16:27 33.271333 -117.732951 138 7505ft 133kts
29-Sep-17 16:28 33.244920 -117.705298 138 7275ft 139kts
29-Sep-17 16:29 33.217250 -117.676363 138 6802ft 139kts
29-Sep-17 16:30 33.190839 -117.648801 138 6343ft 138kts
29-Sep-17 16:31 33.163613 -117.620425 138 5871ft 138kts
29-Sep-17 16:32 33.136548 -117.592242 139 5404ft 138kts
29-Sep-17 16:33 33.109422 -117.564018 139 4935ft 138kts
29-Sep-17 16:34 33.081975 -117.535488 139 4461ft 138kts
29-Sep-17 16:35 33.054764 -117.507224 139 3992ft 138kts
29-Sep-17 16:36 33.027895 -117.479340 139 3527ft 138kts
29-Sep-17 16:37 33.001093 -117.451551 139 3063ft 138kts
29-Sep-17 16:38 32.973759 -117.423234 139 2590ft 137kts
29-Sep-17 16:39 32.944736 -117.400224 174 2104ft 132kts
29-Sep-17 16:40 32.910497 -117.397277 179 1630ft 130kts
29-Sep-17 16:41 32.876500 -117.395267 182 1227ft 124kts
29-Sep-17 16:42 32.847317 -117.394178 178 1581ft 132kts
29-Sep-17 16:43 32.814137 -117.391520 180 1487ft 119kts
29-Sep-17 16:44 32.782599 -117.384431 129 1490ft 135kts
29-Sep-17 16:45 32.770669 -117.344255 105 1490ft 137kts
29-Sep-17 16:46 32.761012 -117.303633 105 1491ft 135kts
29-Sep-17 16:47 32.753418 -117.265829 93 1486ft 116kts
29-Sep-17 16:48 32.753219 -117.231362 88 1489ft 106kts
29-Sep-17 16:49 32.750526 -117.199353 101 1341ft 104kts
29-Sep-17 16:50 32.742855 -117.166779 110 1062ft 109kts
29-Sep-17 16:51 32.728262 -117.141354 177 753ft 91kts
29-Sep-17 16:52 32.726438 -117.160253 286 501ft 83kts
29-Sep-17 16:53 32.731956 -117.183105 287 23ft 61kts
29-Sep-17 16:54 32.733962 -117.188066 19 19ft 0kts
29-Sep-17 16:55 32.734132 -117.187167 105 19ft 14kts
29-Sep-17 16:56 32.732622 -117.181072 105 19ft 24kts
29-Sep-17 16:57 32.732704 -117.177446 55 19ft 7kts
29-Sep-17 16:58 32.732606 -117.177280 205 19ft 0kts
29-Sep-17 16:59 32.732606 -117.177280 205 19ft 0kts
29-Sep-17 17:00 32.732606 -117.177280 205 19ft 0kts
29-Sep-17 17:01 32.732606 -117.177280 205 19ft 0kts
29-Sep-17 17:02 32.732606 -117.177280 205 19ft 0kts
29-Sep-17 17:03 32.732606 -117.177280 205 19ft 0kts
29-Sep-17 17:04 32.732606 -117.177280 205 19ft 0kts
29-Sep-17 17:05 32.732606 -117.177280 205 19ft 0kts

Navigation Log

Ident Type
1. KLAX Airport
2. KSAN Airport